WHISKEYTOWN DAM (USBR) (WHI)

Elevation: 1210' · SACRAMENTO R basin · Operator: US Bureau of Reclamation

Provisional data, subject to change.
Query executed Wednesday at 1:18:56   clock

Select a sensor type for a plot of data.
Note: Reservoir Flows are daily averages.

Earlier

Date RES ELE    STORAGE    RES CHG    OUTFLOW    INFLOW    EVAP    RIV REL    PPT INC    RAIN    SPILL    DIS PWR   
 FEET   AF   AF   CFS   CFS   CFS   CFS   INCHES   INCHES   CFS   CFS  
07/07/2015 1209.01 237927 -64 1400 1406 38 176 0.00 50.93 0 1224
07/08/2015 1209.32 238919 992 665 1208 43 175 0.00 50.93 0 490
07/09/2015 1209.43 239271 352 1147 1348 24 174 0.34 51.27 0 973
07/10/2015 1209.49 239463 192 1142 1239 0 174 0.02 51.29 0 968
07/11/2015 1209.46 239367 -96 1130 1095 13 174 0.01 51.30 0 956
07/12/2015 1209.48 239431 -- 1023 1081 26 174 0.00 51.30 0 849
07/13/2015 1209.44 239303 -128 1343 1295 17 175 0.00 51.30 0 1168
07/14/2015 1209.34 238983 -320 1343 1204 22 175 0.00 51.30 0 1168
07/15/2015 1209.26 238727 -256 1418 1317 28 175 0.00 51.30 0 1243
07/16/2015 1209.24 238663 -64 1252 1248 28 175 0.00 51.30 0 1077
07/17/2015 1209.38 239111 448 1077 1334 31 175 0.00 51.30 0 902
07/18/2015 1209.35 239015 -96 1214 1186 20 176 0.00 51.30 0 1038
07/19/2015 1209.29 238823 -192 1303 1236 30 176 0.00 51.30 0 1127
07/20/2015 1209.27 238759 -64 1398 1401 35 176 0.00 51.30 0 1222
07/21/2015 1209.48 239431 672 962 1325 24 176 0.00 51.30 0 786
07/22/2015 1209.26 238727 -704 1735 1414 34 176 0.00 51.30 0 1559
07/23/2015 1209.18 238471 -256 2251 2146 24 176 0.00 51.30 0 2075
07/24/2015 1209.13 238311 -160 1648 1594 27 176 0.00 51.30 0 1472
07/25/2015 1209.03 237991 -320 1656 1523 28 177 0.00 51.30 0 1479
07/26/2015 1209.01 237927 -64 1448 1443 27 177 0.00 51.30 0 1271
07/27/2015 1208.97 237800 -127 1507 1471 28 177 0.00 51.30 0 1330
07/28/2015 1208.94 237704 -96 1464 1450 34 177 0.00 51.30 0 1287
07/29/2015 1209.07 238119 415 1189 1430 32 176 0.00 51.30 0 1013
07/30/2015 1209.14 238343 224 1418 1564 33 176 0.00 51.30 0 1242
07/31/2015 1209.17 238439 96 1470 1539 21 176 0.00 51.30 0 1294
08/01/2015 1209.20 238535 96 1506 1572 18 176 0.00 51.30 0 1330
08/02/2015 1209.29 238823 288 1506 1679 28 176 0.00 51.30 0 1330
08/03/2015 1209.16 238407 -416 1534 1344 20 176 0.00 51.30 0 1358
08/04/2015 -- -- -- -- -- -- -- -- -- -- --
08/05/2015 -- -- -- -- -- -- -- -- -- -- --

Later | Latest

Warning! This data is preliminary and subject to revision.

Show WHI Map | Plot WHI Data | 1 Month WHI Data | Real-Time WHI Data | WHI Info